sensor_id;sensor_type;location;lat;lon;timestamp;P1;durP1;ratioP1;P2;durP2;ratioP2
77775;SDS011;66965;43.328;6.668;2023-02-17T00:02:21;10.02;;;7.22;;
77775;SDS011;66965;43.328;6.668;2023-02-17T00:04:46;11.38;;;6.90;;
77775;SDS011;66965;43.328;6.668;2023-02-17T00:07:12;11.63;;;7.75;;
77775;SDS011;66965;43.328;6.668;2023-02-17T00:09:37;11.02;;;7.85;;
77775;SDS011;66965;43.328;6.668;2023-02-17T00:12:03;15.95;;;8.68;;
77775;SDS011;66965;43.328;6.668;2023-02-17T00:14:28;10.98;;;6.72;;
77775;SDS011;66965;43.328;6.668;2023-02-17T00:16:54;14.20;;;8.23;;
77775;SDS011;66965;43.328;6.668;2023-02-17T00:19:19;11.70;;;7.75;;
77775;SDS011;66965;43.328;6.668;2023-02-17T00:21:49;12.48;;;6.95;;
77775;SDS011;66965;43.328;6.668;2023-02-17T00:24:15;13.05;;;6.78;;
77775;SDS011;66965;43.328;6.668;2023-02-17T00:26:41;11.18;;;6.53;;
77775;SDS011;66965;43.328;6.668;2023-02-17T00:29:07;10.85;;;7.30;;
77775;SDS011;66965;43.328;6.668;2023-02-17T00:31:32;10.38;;;6.90;;
77775;SDS011;66965;43.328;6.668;2023-02-17T00:33:58;9.70;;;6.82;;
77775;SDS011;66965;43.328;6.668;2023-02-17T00:36:24;12.93;;;6.53;;
77775;SDS011;66965;43.328;6.668;2023-02-17T00:38:51;11.18;;;6.80;;
77775;SDS011;66965;43.328;6.668;2023-02-17T00:41:18;10.50;;;6.65;;
77775;SDS011;66965;43.328;6.668;2023-02-17T00:43:44;11.07;;;6.85;;
77775;SDS011;66965;43.328;6.668;2023-02-17T00:46:10;13.65;;;6.53;;
77775;SDS011;66965;43.328;6.668;2023-02-17T00:48:36;11.60;;;7.28;;
77775;SDS011;66965;43.328;6.668;2023-02-17T00:51:01;11.75;;;7.43;;
77775;SDS011;66965;43.328;6.668;2023-02-17T00:53:27;10.73;;;6.88;;
77775;SDS011;66965;43.328;6.668;2023-02-17T00:55:53;12.00;;;6.85;;
77775;SDS011;66965;43.328;6.668;2023-02-17T00:58:18;10.10;;;6.60;;
77775;SDS011;66965;43.328;6.668;2023-02-17T01:00:44;11.60;;;6.88;;
77775;SDS011;66965;43.328;6.668;2023-02-17T01:03:09;9.88;;;5.63;;
77775;SDS011;66965;43.328;6.668;2023-02-17T01:05:46;12.38;;;6.63;;
77775;SDS011;66965;43.328;6.668;2023-02-17T01:08:12;9.90;;;6.75;;
77775;SDS011;66965;43.328;6.668;2023-02-17T01:10:39;10.00;;;6.95;;
77775;SDS011;66965;43.328;6.668;2023-02-17T01:13:06;10.27;;;6.75;;
77775;SDS011;66965;43.328;6.668;2023-02-17T01:15:38;8.90;;;6.47;;
77775;SDS011;66965;43.328;6.668;2023-02-17T01:18:09;9.35;;;6.28;;
77775;SDS011;66965;43.328;6.668;2023-02-17T01:20:35;12.85;;;6.47;;
77775;SDS011;66965;43.328;6.668;2023-02-17T01:23:01;10.40;;;5.97;;
77775;SDS011;66965;43.328;6.668;2023-02-17T01:25:27;11.02;;;6.40;;
77775;SDS011;66965;43.328;6.668;2023-02-17T01:27:52;10.00;;;6.28;;
77775;SDS011;66965;43.328;6.668;2023-02-17T01:30:18;10.27;;;6.30;;
77775;SDS011;66965;43.328;6.668;2023-02-17T01:32:43;12.25;;;6.38;;
77775;SDS011;66965;43.328;6.668;2023-02-17T01:35:09;11.82;;;7.32;;
77775;SDS011;66965;43.328;6.668;2023-02-17T01:37:34;8.55;;;5.65;;
77775;SDS011;66965;43.328;6.668;2023-02-17T01:40:00;8.13;;;5.50;;
77775;SDS011;66965;43.328;6.668;2023-02-17T01:42:25;9.40;;;6.50;;
77775;SDS011;66965;43.328;6.668;2023-02-17T01:47:42;10.93;;;5.88;;
77775;SDS011;66965;43.328;6.668;2023-02-17T01:50:12;10.80;;;6.07;;
77775;SDS011;66965;43.328;6.668;2023-02-17T01:52:39;9.98;;;5.57;;
77775;SDS011;66965;43.328;6.668;2023-02-17T01:55:07;9.05;;;5.32;;
77775;SDS011;66965;43.328;6.668;2023-02-17T01:57:37;8.90;;;6.07;;
77775;SDS011;66965;43.328;6.668;2023-02-17T02:00:06;9.52;;;6.05;;
77775;SDS011;66965;43.328;6.668;2023-02-17T02:02:34;11.35;;;7.03;;
77775;SDS011;66965;43.328;6.668;2023-02-17T02:04:59;10.65;;;6.50;;
77775;SDS011;66965;43.328;6.668;2023-02-17T02:07:27;10.10;;;6.30;;
77775;SDS011;66965;43.328;6.668;2023-02-17T02:09:56;10.90;;;5.93;;
77775;SDS011;66965;43.328;6.668;2023-02-17T02:14:48;10.87;;;6.10;;
77775;SDS011;66965;43.328;6.668;2023-02-17T02:17:19;11.07;;;6.07;;
77775;SDS011;66965;43.328;6.668;2023-02-17T02:20:03;8.27;;;5.05;;
77775;SDS011;66965;43.328;6.668;2023-02-17T02:25:51;8.60;;;5.07;;
77775;SDS011;66965;43.328;6.668;2023-02-17T02:34:04;7.93;;;4.93;;
77775;SDS011;66965;43.328;6.668;2023-02-17T02:36:32;7.47;;;5.18;;
77775;SDS011;66965;43.328;6.668;2023-02-17T02:39:09;8.70;;;5.90;;
77775;SDS011;66965;43.328;6.668;2023-02-17T02:41:39;8.30;;;5.20;;
77775;SDS011;66965;43.328;6.668;2023-02-17T02:44:08;8.27;;;5.53;;
77775;SDS011;66965;43.328;6.668;2023-02-17T02:46:35;11.20;;;5.82;;
77775;SDS011;66965;43.328;6.668;2023-02-17T02:49:00;9.10;;;5.63;;
77775;SDS011;66965;43.328;6.668;2023-02-17T02:54:23;8.25;;;5.40;;
77775;SDS011;66965;43.328;6.668;2023-02-17T02:57:00;10.15;;;5.78;;
77775;SDS011;66965;43.328;6.668;2023-02-17T02:59:50;8.93;;;5.75;;
77775;SDS011;66965;43.328;6.668;2023-02-17T03:02:30;8.07;;;5.85;;
77775;SDS011;66965;43.328;6.668;2023-02-17T03:05:12;11.45;;;6.72;;
77775;SDS011;66965;43.328;6.668;2023-02-17T03:07:46;11.27;;;6.45;;
77775;SDS011;66965;43.328;6.668;2023-02-17T03:10:13;10.00;;;6.63;;
77775;SDS011;66965;43.328;6.668;2023-02-17T03:12:39;8.90;;;6.13;;
77775;SDS011;66965;43.328;6.668;2023-02-17T03:15:08;10.75;;;5.85;;
77775;SDS011;66965;43.328;6.668;2023-02-17T03:17:39;12.23;;;6.32;;
77775;SDS011;66965;43.328;6.668;2023-02-17T03:20:05;12.40;;;6.30;;
77775;SDS011;66965;43.328;6.668;2023-02-17T03:22:34;9.60;;;6.53;;
77775;SDS011;66965;43.328;6.668;2023-02-17T03:25:04;11.45;;;7.13;;
77775;SDS011;66965;43.328;6.668;2023-02-17T03:27:30;10.82;;;7.22;;
77775;SDS011;66965;43.328;6.668;2023-02-17T03:29:55;12.88;;;6.45;;
77775;SDS011;66965;43.328;6.668;2023-02-17T03:32:21;12.05;;;6.60;;
77775;SDS011;66965;43.328;6.668;2023-02-17T03:34:46;13.10;;;6.80;;
77775;SDS011;66965;43.328;6.668;2023-02-17T03:37:12;9.13;;;6.40;;
77775;SDS011;66965;43.328;6.668;2023-02-17T03:39:37;10.63;;;6.22;;
77775;SDS011;66965;43.328;6.668;2023-02-17T03:42:03;11.68;;;6.80;;
77775;SDS011;66965;43.328;6.668;2023-02-17T03:44:28;10.25;;;6.90;;
77775;SDS011;66965;43.328;6.668;2023-02-17T03:46:54;10.23;;;6.22;;
77775;SDS011;66965;43.328;6.668;2023-02-17T03:49:19;11.95;;;6.20;;
77775;SDS011;66965;43.328;6.668;2023-02-17T03:51:45;11.57;;;6.35;;
77775;SDS011;66965;43.328;6.668;2023-02-17T03:54:10;9.38;;;7.20;;
77775;SDS011;66965;43.328;6.668;2023-02-17T03:56:36;9.77;;;6.15;;
77775;SDS011;66965;43.328;6.668;2023-02-17T03:59:01;10.60;;;6.30;;
77775;SDS011;66965;43.328;6.668;2023-02-17T04:01:28;9.50;;;6.07;;
77775;SDS011;66965;43.328;6.668;2023-02-17T04:03:54;9.05;;;5.93;;
77775;SDS011;66965;43.328;6.668;2023-02-17T04:06:19;11.60;;;7.10;;
77775;SDS011;66965;43.328;6.668;2023-02-17T04:08:45;11.82;;;6.68;;
77775;SDS011;66965;43.328;6.668;2023-02-17T04:11:10;9.23;;;6.00;;
77775;SDS011;66965;43.328;6.668;2023-02-17T04:13:36;13.85;;;6.90;;
77775;SDS011;66965;43.328;6.668;2023-02-17T04:16:02;9.25;;;6.20;;
77775;SDS011;66965;43.328;6.668;2023-02-17T04:18:29;10.15;;;6.75;;
77775;SDS011;66965;43.328;6.668;2023-02-17T04:20:56;11.40;;;7.63;;
77775;SDS011;66965;43.328;6.668;2023-02-17T04:23:22;10.10;;;6.70;;
77775;SDS011;66965;43.328;6.668;2023-02-17T04:25:47;14.15;;;8.57;;
77775;SDS011;66965;43.328;6.668;2023-02-17T04:28:13;12.73;;;7.53;;
77775;SDS011;66965;43.328;6.668;2023-02-17T04:30:44;12.80;;;7.47;;
77775;SDS011;66965;43.328;6.668;2023-02-17T04:33:11;12.07;;;7.47;;
77775;SDS011;66965;43.328;6.668;2023-02-17T04:35:36;12.95;;;6.82;;
77775;SDS011;66965;43.328;6.668;2023-02-17T04:38:02;10.30;;;6.68;;
77775;SDS011;66965;43.328;6.668;2023-02-17T04:40:28;12.43;;;7.30;;
77775;SDS011;66965;43.328;6.668;2023-02-17T04:42:54;10.82;;;7.63;;
77775;SDS011;66965;43.328;6.668;2023-02-17T04:45:20;12.07;;;7.68;;
77775;SDS011;66965;43.328;6.668;2023-02-17T04:47:46;12.27;;;7.22;;
77775;SDS011;66965;43.328;6.668;2023-02-17T04:50:11;11.27;;;6.85;;
77775;SDS011;66965;43.328;6.668;2023-02-17T04:52:37;13.02;;;7.53;;
77775;SDS011;66965;43.328;6.668;2023-02-17T04:55:03;11.82;;;6.80;;
77775;SDS011;66965;43.328;6.668;2023-02-17T04:57:29;11.13;;;6.60;;
77775;SDS011;66965;43.328;6.668;2023-02-17T04:59:54;12.20;;;7.68;;
77775;SDS011;66965;43.328;6.668;2023-02-17T05:02:20;12.00;;;7.40;;
77775;SDS011;66965;43.328;6.668;2023-02-17T05:04:45;12.90;;;7.25;;
77775;SDS011;66965;43.328;6.668;2023-02-17T05:07:11;10.45;;;7.78;;
77775;SDS011;66965;43.328;6.668;2023-02-17T05:09:36;10.93;;;7.03;;
77775;SDS011;66965;43.328;6.668;2023-02-17T05:12:02;11.30;;;7.93;;
77775;SDS011;66965;43.328;6.668;2023-02-17T05:14:29;11.95;;;7.60;;
77775;SDS011;66965;43.328;6.668;2023-02-17T05:16:55;10.20;;;7.55;;
77775;SDS011;66965;43.328;6.668;2023-02-17T05:19:20;11.70;;;8.98;;
77775;SDS011;66965;43.328;6.668;2023-02-17T05:21:46;12.38;;;8.50;;
77775;SDS011;66965;43.328;6.668;2023-02-17T05:24:11;13.55;;;7.57;;
77775;SDS011;66965;43.328;6.668;2023-02-17T05:26:36;13.95;;;8.25;;
77775;SDS011;66965;43.328;6.668;2023-02-17T05:29:02;11.52;;;7.70;;
77775;SDS011;66965;43.328;6.668;2023-02-17T05:31:28;14.55;;;8.98;;
77775;SDS011;66965;43.328;6.668;2023-02-17T05:33:53;11.75;;;7.25;;
77775;SDS011;66965;43.328;6.668;2023-02-17T05:36:19;9.65;;;6.57;;
77775;SDS011;66965;43.328;6.668;2023-02-17T05:38:45;11.65;;;6.70;;
77775;SDS011;66965;43.328;6.668;2023-02-17T05:41:13;10.93;;;6.03;;
77775;SDS011;66965;43.328;6.668;2023-02-17T05:43:42;10.07;;;6.25;;
77775;SDS011;66965;43.328;6.668;2023-02-17T05:46:08;9.77;;;6.63;;
77775;SDS011;66965;43.328;6.668;2023-02-17T05:48:33;14.70;;;7.32;;
77775;SDS011;66965;43.328;6.668;2023-02-17T05:50:59;13.52;;;7.55;;
77775;SDS011;66965;43.328;6.668;2023-02-17T05:53:24;10.50;;;7.07;;
77775;SDS011;66965;43.328;6.668;2023-02-17T05:55:50;11.52;;;7.15;;
77775;SDS011;66965;43.328;6.668;2023-02-17T05:58:16;12.60;;;7.85;;
77775;SDS011;66965;43.328;6.668;2023-02-17T06:00:41;13.65;;;8.98;;
77775;SDS011;66965;43.328;6.668;2023-02-17T06:03:07;17.77;;;8.60;;
77775;SDS011;66965;43.328;6.668;2023-02-17T06:05:32;13.43;;;7.25;;
77775;SDS011;66965;43.328;6.668;2023-02-17T06:07:58;11.70;;;7.50;;
77775;SDS011;66965;43.328;6.668;2023-02-17T06:10:23;13.20;;;8.30;;
77775;SDS011;66965;43.328;6.668;2023-02-17T06:12:48;13.02;;;7.60;;
77775;SDS011;66965;43.328;6.668;2023-02-17T06:15:14;12.55;;;8.32;;
77775;SDS011;66965;43.328;6.668;2023-02-17T06:17:40;12.43;;;8.18;;
77775;SDS011;66965;43.328;6.668;2023-02-17T06:20:05;13.85;;;8.80;;
77775;SDS011;66965;43.328;6.668;2023-02-17T06:22:32;12.32;;;8.30;;
77775;SDS011;66965;43.328;6.668;2023-02-17T06:24:57;14.27;;;9.07;;
77775;SDS011;66965;43.328;6.668;2023-02-17T06:27:23;12.93;;;8.63;;
77775;SDS011;66965;43.328;6.668;2023-02-17T06:29:48;11.65;;;8.18;;
77775;SDS011;66965;43.328;6.668;2023-02-17T06:32:14;14.30;;;8.20;;
77775;SDS011;66965;43.328;6.668;2023-02-17T06:34:39;17.88;;;8.90;;
77775;SDS011;66965;43.328;6.668;2023-02-17T06:37:05;12.93;;;8.15;;
77775;SDS011;66965;43.328;6.668;2023-02-17T06:39:30;13.05;;;8.45;;
77775;SDS011;66965;43.328;6.668;2023-02-17T06:41:56;12.63;;;8.45;;
77775;SDS011;66965;43.328;6.668;2023-02-17T06:44:21;13.07;;;8.00;;
77775;SDS011;66965;43.328;6.668;2023-02-17T06:46:47;12.25;;;8.50;;
77775;SDS011;66965;43.328;6.668;2023-02-17T06:49:12;13.07;;;8.38;;
77775;SDS011;66965;43.328;6.668;2023-02-17T06:51:38;12.18;;;7.93;;
77775;SDS011;66965;43.328;6.668;2023-02-17T06:54:04;15.18;;;7.93;;
77775;SDS011;66965;43.328;6.668;2023-02-17T06:56:29;11.57;;;8.45;;
77775;SDS011;66965;43.328;6.668;2023-02-17T06:58:55;11.40;;;9.10;;
77775;SDS011;66965;43.328;6.668;2023-02-17T07:01:22;14.70;;;9.35;;
77775;SDS011;66965;43.328;6.668;2023-02-17T07:03:53;12.73;;;8.07;;
77775;SDS011;66965;43.328;6.668;2023-02-17T07:06:19;14.98;;;9.68;;
77775;SDS011;66965;43.328;6.668;2023-02-17T07:08:47;12.70;;;7.75;;
77775;SDS011;66965;43.328;6.668;2023-02-17T07:11:13;11.90;;;8.23;;
77775;SDS011;66965;43.328;6.668;2023-02-17T07:13:39;14.30;;;8.57;;
77775;SDS011;66965;43.328;6.668;2023-02-17T07:16:06;12.48;;;8.73;;
77775;SDS011;66965;43.328;6.668;2023-02-17T07:18:32;14.27;;;8.48;;
77775;SDS011;66965;43.328;6.668;2023-02-17T07:20:58;12.93;;;7.65;;
77775;SDS011;66965;43.328;6.668;2023-02-17T07:23:24;10.93;;;7.93;;
77775;SDS011;66965;43.328;6.668;2023-02-17T07:25:50;12.90;;;8.77;;
77775;SDS011;66965;43.328;6.668;2023-02-17T07:28:15;11.00;;;7.63;;
77775;SDS011;66965;43.328;6.668;2023-02-17T07:30:42;12.05;;;8.15;;
77775;SDS011;66965;43.328;6.668;2023-02-17T07:33:08;12.88;;;7.55;;
77775;SDS011;66965;43.328;6.668;2023-02-17T07:38:04;10.43;;;6.78;;
77775;SDS011;66965;43.328;6.668;2023-02-17T07:40:30;10.68;;;6.63;;
77775;SDS011;66965;43.328;6.668;2023-02-17T07:42:55;11.93;;;7.55;;
77775;SDS011;66965;43.328;6.668;2023-02-17T07:47:47;13.93;;;7.47;;
77775;SDS011;66965;43.328;6.668;2023-02-17T07:50:13;10.85;;;7.30;;
77775;SDS011;66965;43.328;6.668;2023-02-17T07:52:38;13.55;;;8.40;;
77775;SDS011;66965;43.328;6.668;2023-02-17T07:55:04;13.52;;;8.45;;
77775;SDS011;66965;43.328;6.668;2023-02-17T07:57:29;10.93;;;7.53;;
77775;SDS011;66965;43.328;6.668;2023-02-17T07:59:55;10.05;;;7.72;;
77775;SDS011;66965;43.328;6.668;2023-02-17T08:02:20;11.98;;;8.20;;
77775;SDS011;66965;43.328;6.668;2023-02-17T08:04:46;22.05;;;13.88;;
77775;SDS011;66965;43.328;6.668;2023-02-17T08:07:12;15.93;;;9.48;;
77775;SDS011;66965;43.328;6.668;2023-02-17T08:09:38;20.63;;;10.68;;
77775;SDS011;66965;43.328;6.668;2023-02-17T08:12:22;21.08;;;12.80;;
77775;SDS011;66965;43.328;6.668;2023-02-17T08:15:07;29.25;;;15.27;;
77775;SDS011;66965;43.328;6.668;2023-02-17T08:17:33;20.55;;;10.88;;
77775;SDS011;66965;43.328;6.668;2023-02-17T08:19:59;25.83;;;11.95;;
77775;SDS011;66965;43.328;6.668;2023-02-17T08:22:24;17.77;;;10.27;;
77775;SDS011;66965;43.328;6.668;2023-02-17T08:24:50;15.20;;;8.23;;
77775;SDS011;66965;43.328;6.668;2023-02-17T08:27:16;16.30;;;9.18;;
77775;SDS011;66965;43.328;6.668;2023-02-17T08:29:42;17.27;;;10.45;;
77775;SDS011;66965;43.328;6.668;2023-02-17T08:32:08;19.10;;;11.00;;
77775;SDS011;66965;43.328;6.668;2023-02-17T08:34:33;22.40;;;11.13;;
77775;SDS011;66965;43.328;6.668;2023-02-17T08:37:03;21.63;;;11.10;;
77775;SDS011;66965;43.328;6.668;2023-02-17T08:39:30;21.90;;;11.90;;
77775;SDS011;66965;43.328;6.668;2023-02-17T08:41:56;20.10;;;11.85;;
77775;SDS011;66965;43.328;6.668;2023-02-17T08:44:21;21.95;;;11.20;;
77775;SDS011;66965;43.328;6.668;2023-02-17T08:46:48;20.58;;;11.73;;
77775;SDS011;66965;43.328;6.668;2023-02-17T08:49:16;20.55;;;11.20;;
77775;SDS011;66965;43.328;6.668;2023-02-17T08:51:43;16.90;;;10.43;;
77775;SDS011;66965;43.328;6.668;2023-02-17T08:54:09;19.08;;;10.25;;
77775;SDS011;66965;43.328;6.668;2023-02-17T08:56:35;13.80;;;9.32;;
77775;SDS011;66965;43.328;6.668;2023-02-17T08:59:02;15.68;;;10.07;;
77775;SDS011;66965;43.328;6.668;2023-02-17T09:01:29;16.48;;;8.80;;
77775;SDS011;66965;43.328;6.668;2023-02-17T09:03:55;12.68;;;8.50;;
77775;SDS011;66965;43.328;6.668;2023-02-17T09:06:22;11.93;;;8.50;;
77775;SDS011;66965;43.328;6.668;2023-02-17T09:08:49;10.77;;;7.13;;
77775;SDS011;66965;43.328;6.668;2023-02-17T09:11:16;11.38;;;7.13;;
77775;SDS011;66965;43.328;6.668;2023-02-17T09:13:44;10.00;;;6.80;;
77775;SDS011;66965;43.328;6.668;2023-02-17T09:16:09;10.85;;;7.03;;
77775;SDS011;66965;43.328;6.668;2023-02-17T09:18:35;13.15;;;7.60;;
77775;SDS011;66965;43.328;6.668;2023-02-17T09:21:07;10.95;;;7.15;;
77775;SDS011;66965;43.328;6.668;2023-02-17T09:23:35;12.70;;;7.22;;
77775;SDS011;66965;43.328;6.668;2023-02-17T09:26:01;10.18;;;6.80;;
77775;SDS011;66965;43.328;6.668;2023-02-17T09:28:31;10.88;;;7.20;;
77775;SDS011;66965;43.328;6.668;2023-02-17T09:30:58;9.18;;;7.00;;
77775;SDS011;66965;43.328;6.668;2023-02-17T09:33:32;11.98;;;6.30;;
77775;SDS011;66965;43.328;6.668;2023-02-17T09:35:57;9.15;;;7.13;;
77775;SDS011;66965;43.328;6.668;2023-02-17T09:38:24;9.98;;;6.85;;
77775;SDS011;66965;43.328;6.668;2023-02-17T09:40:50;9.60;;;6.80;;
77775;SDS011;66965;43.328;6.668;2023-02-17T09:43:16;10.13;;;6.78;;
77775;SDS011;66965;43.328;6.668;2023-02-17T09:45:53;9.85;;;6.90;;
77775;SDS011;66965;43.328;6.668;2023-02-17T09:48:25;9.55;;;7.05;;
77775;SDS011;66965;43.328;6.668;2023-02-17T09:51:01;10.10;;;7.28;;
77775;SDS011;66965;43.328;6.668;2023-02-17T09:55:54;13.65;;;8.35;;
77775;SDS011;66965;43.328;6.668;2023-02-17T10:00:49;11.23;;;8.07;;
77775;SDS011;66965;43.328;6.668;2023-02-17T10:03:28;12.75;;;8.75;;
77775;SDS011;66965;43.328;6.668;2023-02-17T10:08:54;14.50;;;10.27;;
77775;SDS011;66965;43.328;6.668;2023-02-17T10:14:29;13.20;;;9.32;;
77775;SDS011;66965;43.328;6.668;2023-02-17T10:17:05;14.07;;;9.18;;
77775;SDS011;66965;43.328;6.668;2023-02-17T10:22:20;15.02;;;9.90;;
77775;SDS011;66965;43.328;6.668;2023-02-17T10:24:47;14.82;;;10.07;;
77775;SDS011;66965;43.328;6.668;2023-02-17T10:30:30;16.20;;;9.70;;
77775;SDS011;66965;43.328;6.668;2023-02-17T10:33:11;16.20;;;10.60;;
77775;SDS011;66965;43.328;6.668;2023-02-17T10:35:48;18.25;;;10.90;;
77775;SDS011;66965;43.328;6.668;2023-02-17T10:40:53;15.07;;;9.93;;
77775;SDS011;66965;43.328;6.668;2023-02-17T10:43:21;14.20;;;9.48;;
77775;SDS011;66965;43.328;6.668;2023-02-17T10:45:51;14.45;;;9.75;;
77775;SDS011;66965;43.328;6.668;2023-02-17T10:48:39;17.25;;;9.23;;
77775;SDS011;66965;43.328;6.668;2023-02-17T10:51:12;13.43;;;8.82;;
77775;SDS011;66965;43.328;6.668;2023-02-17T10:53:40;12.13;;;8.60;;
77775;SDS011;66965;43.328;6.668;2023-02-17T10:56:10;13.45;;;9.45;;
77775;SDS011;66965;43.328;6.668;2023-02-17T11:01:10;12.38;;;8.73;;
77775;SDS011;66965;43.328;6.668;2023-02-17T11:03:38;17.00;;;9.30;;
77775;SDS011;66965;43.328;6.668;2023-02-17T11:06:19;13.60;;;8.73;;
77775;SDS011;66965;43.328;6.668;2023-02-17T11:08:51;12.05;;;8.45;;
77775;SDS011;66965;43.328;6.668;2023-02-17T11:11:20;12.07;;;7.47;;
77775;SDS011;66965;43.328;6.668;2023-02-17T11:19:02;12.65;;;7.18;;
77775;SDS011;66965;43.328;6.668;2023-02-17T11:21:29;14.00;;;8.30;;
77775;SDS011;66965;43.328;6.668;2023-02-17T11:23:58;11.68;;;8.23;;
77775;SDS011;66965;43.328;6.668;2023-02-17T11:26:26;12.63;;;8.10;;
77775;SDS011;66965;43.328;6.668;2023-02-17T11:29:05;10.95;;;7.88;;
77775;SDS011;66965;43.328;6.668;2023-02-17T11:31:33;12.90;;;8.05;;
77775;SDS011;66965;43.328;6.668;2023-02-17T11:34:09;10.82;;;8.30;;
77775;SDS011;66965;43.328;6.668;2023-02-17T11:36:39;12.32;;;8.57;;
77775;SDS011;66965;43.328;6.668;2023-02-17T11:39:18;9.93;;;7.35;;
77775;SDS011;66965;43.328;6.668;2023-02-17T11:41:45;12.75;;;8.18;;
77775;SDS011;66965;43.328;6.668;2023-02-17T11:44:10;11.00;;;7.95;;
77775;SDS011;66965;43.328;6.668;2023-02-17T11:57:44;12.13;;;7.05;;
77775;SDS011;66965;43.328;6.668;2023-02-17T12:05:57;10.02;;;6.82;;
77775;SDS011;66965;43.328;6.668;2023-02-17T12:17:09;8.57;;;5.78;;
77775;SDS011;66965;43.328;6.668;2023-02-17T12:19:48;8.52;;;6.18;;
77775;SDS011;66965;43.328;6.668;2023-02-17T12:25:49;10.35;;;5.45;;
77775;SDS011;66965;43.328;6.668;2023-02-17T12:34:03;9.02;;;5.15;;
77775;SDS011;66965;43.328;6.668;2023-02-17T12:39:09;9.23;;;5.15;;
77775;SDS011;66965;43.328;6.668;2023-02-17T12:41:43;7.40;;;5.10;;
77775;SDS011;66965;43.328;6.668;2023-02-17T12:44:17;8.40;;;4.80;;
77775;SDS011;66965;43.328;6.668;2023-02-17T12:46:47;5.78;;;4.22;;
77775;SDS011;66965;43.328;6.668;2023-02-17T12:51:59;7.45;;;4.88;;
77775;SDS011;66965;43.328;6.668;2023-02-17T12:54:39;8.23;;;5.07;;
77775;SDS011;66965;43.328;6.668;2023-02-17T12:59:36;8.52;;;5.25;;
77775;SDS011;66965;43.328;6.668;2023-02-17T13:02:05;8.00;;;5.43;;
77775;SDS011;66965;43.328;6.668;2023-02-17T13:04:34;8.23;;;5.18;;
77775;SDS011;66965;43.328;6.668;2023-02-17T13:07:12;6.32;;;4.68;;
77775;SDS011;66965;43.328;6.668;2023-02-17T13:09:44;13.32;;;5.07;;
77775;SDS011;66965;43.328;6.668;2023-02-17T13:14:47;9.73;;;5.32;;
77775;SDS011;66965;43.328;6.668;2023-02-17T13:22:41;10.60;;;4.72;;
77775;SDS011;66965;43.328;6.668;2023-02-17T13:25:11;7.88;;;5.30;;
77775;SDS011;66965;43.328;6.668;2023-02-17T13:27:49;7.47;;;4.35;;
77775;SDS011;66965;43.328;6.668;2023-02-17T13:32:46;6.90;;;4.32;;
77775;SDS011;66965;43.328;6.668;2023-02-17T13:37:50;10.93;;;4.00;;
77775;SDS011;66965;43.328;6.668;2023-02-17T13:47:56;6.63;;;3.63;;
77775;SDS011;66965;43.328;6.668;2023-02-17T13:50:37;5.43;;;3.03;;
77775;SDS011;66965;43.328;6.668;2023-02-17T13:53:48;7.15;;;3.70;;
77775;SDS011;66965;43.328;6.668;2023-02-17T13:56:11;7.38;;;3.90;;
77775;SDS011;66965;43.328;6.668;2023-02-17T13:58:48;7.18;;;3.70;;
77775;SDS011;66965;43.328;6.668;2023-02-17T14:01:14;7.43;;;3.92;;
77775;SDS011;66965;43.328;6.668;2023-02-17T14:03:46;8.30;;;3.95;;
77775;SDS011;66965;43.328;6.668;2023-02-17T14:08:54;6.57;;;3.67;;
77775;SDS011;66965;43.328;6.668;2023-02-17T14:11:25;6.53;;;3.88;;
77775;SDS011;66965;43.328;6.668;2023-02-17T14:13:53;6.60;;;4.07;;
77775;SDS011;66965;43.328;6.668;2023-02-17T14:21:31;6.68;;;4.10;;
77775;SDS011;66965;43.328;6.668;2023-02-17T14:23:58;6.70;;;4.20;;
77775;SDS011;66965;43.328;6.668;2023-02-17T14:26:29;9.30;;;4.32;;
77775;SDS011;66965;43.328;6.668;2023-02-17T14:28:59;5.80;;;4.10;;
77775;SDS011;66965;43.328;6.668;2023-02-17T14:31:26;9.38;;;4.18;;
77775;SDS011;66965;43.328;6.668;2023-02-17T14:33:59;7.25;;;4.25;;
77775;SDS011;66965;43.328;6.668;2023-02-17T14:36:27;7.88;;;4.40;;
77775;SDS011;66965;43.328;6.668;2023-02-17T14:39:07;6.45;;;4.85;;
77775;SDS011;66965;43.328;6.668;2023-02-17T14:41:33;10.02;;;4.22;;
77775;SDS011;66965;43.328;6.668;2023-02-17T14:43:59;10.48;;;5.65;;
77775;SDS011;66965;43.328;6.668;2023-02-17T14:46:25;9.15;;;4.93;;
77775;SDS011;66965;43.328;6.668;2023-02-17T14:51:18;12.95;;;6.20;;
77775;SDS011;66965;43.328;6.668;2023-02-17T14:53:49;7.30;;;4.88;;
77775;SDS011;66965;43.328;6.668;2023-02-17T14:56:20;7.28;;;4.70;;
77775;SDS011;66965;43.328;6.668;2023-02-17T14:59:07;7.85;;;4.43;;
77775;SDS011;66965;43.328;6.668;2023-02-17T15:01:34;8.20;;;4.57;;
77775;SDS011;66965;43.328;6.668;2023-02-17T15:04:00;8.00;;;4.32;;
77775;SDS011;66965;43.328;6.668;2023-02-17T15:06:39;6.70;;;4.53;;
77775;SDS011;66965;43.328;6.668;2023-02-17T15:09:11;9.32;;;5.03;;
77775;SDS011;66965;43.328;6.668;2023-02-17T15:11:39;9.02;;;5.20;;
77775;SDS011;66965;43.328;6.668;2023-02-17T15:14:09;7.32;;;4.95;;
77775;SDS011;66965;43.328;6.668;2023-02-17T15:16:37;8.02;;;4.18;;
77775;SDS011;66965;43.328;6.668;2023-02-17T15:19:03;7.95;;;5.15;;
77775;SDS011;66965;43.328;6.668;2023-02-17T15:21:29;8.93;;;4.35;;
77775;SDS011;66965;43.328;6.668;2023-02-17T15:23:57;12.27;;;4.85;;
77775;SDS011;66965;43.328;6.668;2023-02-17T15:26:24;6.68;;;4.28;;
77775;SDS011;66965;43.328;6.668;2023-02-17T15:28:50;6.35;;;4.00;;
77775;SDS011;66965;43.328;6.668;2023-02-17T15:31:15;6.95;;;4.03;;
77775;SDS011;66965;43.328;6.668;2023-02-17T15:33:44;7.10;;;4.75;;
77775;SDS011;66965;43.328;6.668;2023-02-17T15:36:17;6.95;;;4.35;;
77775;SDS011;66965;43.328;6.668;2023-02-17T15:38:42;8.10;;;4.25;;
77775;SDS011;66965;43.328;6.668;2023-02-17T15:41:21;8.82;;;4.63;;
77775;SDS011;66965;43.328;6.668;2023-02-17T15:43:49;9.32;;;4.13;;
77775;SDS011;66965;43.328;6.668;2023-02-17T15:46:17;8.23;;;4.65;;
77775;SDS011;66965;43.328;6.668;2023-02-17T15:48:44;7.95;;;5.07;;
77775;SDS011;66965;43.328;6.668;2023-02-17T15:51:16;7.43;;;4.97;;
77775;SDS011;66965;43.328;6.668;2023-02-17T15:53:47;8.02;;;5.63;;
77775;SDS011;66965;43.328;6.668;2023-02-17T15:56:17;7.93;;;5.50;;
77775;SDS011;66965;43.328;6.668;2023-02-17T15:58:45;7.15;;;5.20;;
77775;SDS011;66965;43.328;6.668;2023-02-17T16:01:14;8.43;;;4.95;;
77775;SDS011;66965;43.328;6.668;2023-02-17T16:03:45;8.85;;;5.43;;
77775;SDS011;66965;43.328;6.668;2023-02-17T16:06:10;8.00;;;5.70;;
77775;SDS011;66965;43.328;6.668;2023-02-17T16:08:36;7.65;;;4.32;;
77775;SDS011;66965;43.328;6.668;2023-02-17T16:11:01;9.48;;;4.95;;
77775;SDS011;66965;43.328;6.668;2023-02-17T16:13:27;7.50;;;5.32;;
77775;SDS011;66965;43.328;6.668;2023-02-17T16:15:53;11.88;;;5.25;;
77775;SDS011;66965;43.328;6.668;2023-02-17T16:18:22;9.48;;;5.25;;
77775;SDS011;66965;43.328;6.668;2023-02-17T16:20:48;8.57;;;5.63;;
77775;SDS011;66965;43.328;6.668;2023-02-17T16:23:14;8.57;;;4.72;;
77775;SDS011;66965;43.328;6.668;2023-02-17T16:25:43;9.05;;;5.75;;
77775;SDS011;66965;43.328;6.668;2023-02-17T16:28:14;8.43;;;6.00;;
77775;SDS011;66965;43.328;6.668;2023-02-17T16:30:44;8.48;;;5.45;;
77775;SDS011;66965;43.328;6.668;2023-02-17T16:33:10;9.95;;;5.88;;
77775;SDS011;66965;43.328;6.668;2023-02-17T16:35:36;10.00;;;5.05;;
77775;SDS011;66965;43.328;6.668;2023-02-17T16:38:06;9.52;;;5.43;;
77775;SDS011;66965;43.328;6.668;2023-02-17T16:40:36;9.82;;;5.72;;
77775;SDS011;66965;43.328;6.668;2023-02-17T16:43:11;18.25;;;6.38;;
77775;SDS011;66965;43.328;6.668;2023-02-17T16:45:38;11.63;;;7.32;;
77775;SDS011;66965;43.328;6.668;2023-02-17T16:48:16;11.30;;;6.32;;